Time;durP1;ratioP1;P1;durP2;ratioP2;P2;SDS_P1;SDS_P2;PMS_P1;PMS_P2;Temp;Humidity;BMP_temperature;BMP_pressure;BME280_temperature;BME280_humidity;BME280_pressure;Samples;Min_cycle;Max_cycle;Signal;HPM_P1;HPM_P2
2021/06/26 00:02:26;;;;;;;7.27;6.67;;;20.40;99.90;;;;;;4998561;28;20533;-78
2021/06/26 00:04:52;;;;;;;7.00;6.40;;;20.40;99.90;;;;;;5003915;28;20462;-78
2021/06/26 00:07:20;;;;;;;8.20;7.30;;;20.40;99.90;;;;;;5005717;28;20478;-78
2021/06/26 00:09:47;;;;;;;7.20;6.60;;;20.30;99.90;;;;;;4997272;28;20461;-78
2021/06/26 00:12:13;;;;;;;7.13;6.43;;;20.20;99.90;;;;;;5005024;28;20497;-77
2021/06/26 00:14:40;;;;;;;6.93;6.33;;;20.20;99.90;;;;;;5005457;28;20479;-78
2021/06/26 00:17:08;;;;;;;6.77;6.27;;;20.20;99.90;;;;;;4993638;28;20507;-78
2021/06/26 00:19:35;;;;;;;6.60;6.10;;;20.20;99.90;;;;;;4992699;28;20451;-78
2021/06/26 00:22:01;;;;;;;8.53;6.80;;;20.20;99.90;;;;;;4993147;28;20498;-78
2021/06/26 00:24:29;;;;;;;6.20;5.80;;;20.20;99.90;;;;;;4993145;28;20451;-78
2021/06/26 00:26:56;;;;;;;7.40;6.80;;;20.20;99.90;;;;;;4993053;28;20505;-78
2021/06/26 00:29:22;;;;;;;6.43;5.93;;;20.20;99.90;;;;;;4992717;28;20479;-78
2021/06/26 00:31:49;;;;;;;7.27;6.67;;;20.20;99.90;;;;;;4992608;28;20485;-77
2021/06/26 00:34:15;;;;;;;6.97;6.47;;;20.20;99.90;;;;;;4992825;28;20483;-78
2021/06/26 00:36:42;;;;;;;7.23;6.63;;;20.20;99.90;;;;;;4992901;28;20452;-78
2021/06/26 00:39:08;;;;;;;6.27;5.77;;;20.10;99.90;;;;;;4992719;28;20551;-78
2021/06/26 00:41:36;;;;;;;7.23;6.73;;;20.10;99.90;;;;;;4979028;28;20887;-78
2021/06/26 00:44:07;;;;;;;6.80;6.30;;;20.10;99.90;;;;;;4988681;28;20494;-78
2021/06/26 00:46:33;;;;;;;7.10;6.60;;;20.10;99.90;;;;;;4979462;28;20815;-83
2021/06/26 00:49:00;;;;;;;7.63;6.93;;;20.10;99.90;;;;;;4982970;28;20789;-78
2021/06/26 00:51:26;;;;;;;6.73;6.23;;;20.00;99.90;;;;;;4986551;28;20905;-77
2021/06/26 00:53:54;;;;;;;7.27;6.63;;;20.00;99.90;;;;;;4991720;28;20537;-77
2021/06/26 00:56:20;;;;;;;7.27;6.67;;;19.90;99.90;;;;;;4992602;28;20883;-77
2021/06/26 00:58:48;;;;;;;7.10;6.40;;;19.90;99.90;;;;;;4992428;28;20522;-78
2021/06/26 01:01:15;;;;;;;7.13;6.63;;;19.90;99.90;;;;;;4992458;28;20486;-78
2021/06/26 01:03:43;;;;;;;8.27;7.47;;;19.80;99.90;;;;;;4992540;28;20505;-77
2021/06/26 01:06:11;;;;;;;8.10;7.40;;;19.70;99.90;;;;;;4992428;28;20474;-77
2021/06/26 01:08:37;;;;;;;7.33;6.73;;;19.70;99.90;;;;;;4992449;28;20954;-77
2021/06/26 01:11:04;;;;;;;7.57;6.87;;;19.60;99.90;;;;;;4992371;28;20542;-78
2021/06/26 01:13:32;;;;;;;7.97;7.27;;;19.60;99.90;;;;;;4978741;28;20555;-77
2021/06/26 01:16:00;;;;;;;8.10;7.50;;;19.60;99.90;;;;;;4989947;28;20447;-77
2021/06/26 01:18:27;;;;;;;8.33;7.17;;;19.60;99.90;;;;;;4997659;28;20949;-78
2021/06/26 01:20:53;;;;;;;7.83;7.23;;;19.50;99.90;;;;;;5003056;28;20883;-76
2021/06/26 01:23:24;;;;;;;8.37;7.57;;;19.50;99.90;;;;;;5004668;28;20485;-77
2021/06/26 01:25:50;;;;;;;8.20;7.60;;;19.40;99.90;;;;;;4995895;28;20493;-78
2021/06/26 01:28:18;;;;;;;7.93;7.10;;;19.30;99.90;;;;;;5010939;28;21055;-77
2021/06/26 01:30:44;;;;;;;8.30;7.60;;;19.20;99.90;;;;;;5003886;28;20442;-76
2021/06/26 01:33:11;;;;;;;8.77;7.97;;;19.10;99.90;;;;;;5003527;28;20473;-77
2021/06/26 01:35:37;;;;;;;8.50;7.70;;;19.10;99.90;;;;;;4997593;28;20954;-76
2021/06/26 01:38:05;;;;;;;9.00;8.13;;;19.00;99.90;;;;;;5007618;28;20485;-76
2021/06/26 01:40:33;;;;;;;8.50;7.80;;;18.90;99.90;;;;;;4998381;28;20980;-77
2021/06/26 01:42:59;;;;;;;9.27;8.47;;;18.80;99.90;;;;;;5002013;28;20458;-78
2021/06/26 01:45:26;;;;;;;8.30;7.60;;;18.70;99.90;;;;;;4998287;28;20450;-77
2021/06/26 01:47:54;;;;;;;8.80;8.10;;;18.70;99.90;;;;;;5006458;28;20550;-77
2021/06/26 01:50:23;;;;;;;9.03;8.33;;;18.70;99.90;;;;;;5000461;28;20533;-77
2021/06/26 01:52:50;;;;;;;9.50;8.70;;;18.60;99.90;;;;;;5008059;28;21554;-77
2021/06/26 01:55:18;;;;;;;9.20;8.40;;;18.60;99.90;;;;;;4996780;28;20485;-76
2021/06/26 01:57:48;;;;;;;8.90;8.10;;;18.50;99.90;;;;;;5012912;28;20545;-76
2021/06/26 02:00:16;;;;;;;8.43;7.63;;;18.50;99.90;;;;;;5009331;28;20455;-77
2021/06/26 02:02:43;;;;;;;8.03;7.27;;;18.40;99.90;;;;;;5005088;28;20482;-76
2021/06/26 02:05:11;;;;;;;8.13;7.47;;;18.40;99.90;;;;;;5001654;28;20486;-77
2021/06/26 02:07:38;;;;;;;8.17;7.57;;;18.30;99.90;;;;;;5011416;28;20482;-78
2021/06/26 02:10:06;;;;;;;8.67;7.80;;;18.30;99.90;;;;;;4999893;28;20454;-78
2021/06/26 02:12:33;;;;;;;8.73;7.93;;;18.20;99.90;;;;;;5010140;28;20442;-78
2021/06/26 02:15:01;;;;;;;9.70;7.70;;;18.20;99.90;;;;;;5002694;28;21001;-77
2021/06/26 02:17:27;;;;;;;8.13;7.43;;;18.20;99.90;;;;;;5010547;28;21076;-78
2021/06/26 02:19:54;;;;;;;8.50;7.70;;;18.20;99.90;;;;;;5010954;28;20832;-77
2021/06/26 02:22:21;;;;;;;8.40;7.60;;;18.10;99.90;;;;;;5002082;28;20478;-77
2021/06/26 02:24:47;;;;;;;8.00;7.20;;;18.10;99.90;;;;;;5004362;28;20498;-78
2021/06/26 02:27:14;;;;;;;9.17;8.37;;;18.20;99.90;;;;;;5009521;28;20450;-78
2021/06/26 02:29:40;;;;;;;7.23;6.73;;;18.30;99.90;;;;;;5010744;28;21048;-77
2021/06/26 02:32:08;;;;;;;7.73;7.10;;;18.30;99.90;;;;;;5010025;28;20487;-77
2021/06/26 02:34:35;;;;;;;6.40;5.90;;;18.40;99.90;;;;;;5003525;28;20886;-78
2021/06/26 02:37:02;;;;;;;8.33;6.60;;;18.40;99.90;;;;;;5002684;28;20486;-78
2021/06/26 02:39:28;;;;;;;7.40;6.80;;;18.30;99.90;;;;;;5009658;28;20454;-78
2021/06/26 02:41:55;;;;;;;7.13;6.53;;;18.30;99.90;;;;;;5011062;28;20530;-77
2021/06/26 02:44:21;;;;;;;6.40;5.90;;;18.30;99.90;;;;;;5001555;28;21020;-78
2021/06/26 02:46:50;;;;;;;10.10;6.67;;;18.30;99.90;;;;;;5003879;28;20463;-77
2021/06/26 02:49:18;;;;;;;7.20;6.60;;;18.20;99.90;;;;;;5008973;28;20458;-78
2021/06/26 02:51:44;;;;;;;6.73;6.13;;;18.20;99.90;;;;;;4997962;28;20455;-78
2021/06/26 02:54:11;;;;;;;6.70;6.10;;;18.10;99.90;;;;;;5013654;28;20515;-77
2021/06/26 02:56:37;;;;;;;7.77;7.00;;;18.10;99.90;;;;;;5005346;28;20479;-77
2021/06/26 02:59:04;;;;;;;6.50;6.00;;;18.00;99.90;;;;;;5011922;28;20446;-78
2021/06/26 03:01:31;;;;;;;6.33;5.83;;;18.00;99.90;;;;;;4997738;28;20487;-77
2021/06/26 03:03:57;;;;;;;6.10;5.67;;;18.00;99.90;;;;;;5010225;28;20490;-76
2021/06/26 03:06:25;;;;;;;6.20;5.80;;;18.00;99.90;;;;;;5001692;28;20446;-77
2021/06/26 03:08:51;;;;;;;6.30;5.80;;;18.00;99.90;;;;;;5003013;28;20482;-77
2021/06/26 03:11:18;;;;;;;6.57;6.07;;;18.00;99.90;;;;;;5005593;28;20542;-77
2021/06/26 03:13:45;;;;;;;6.37;5.77;;;17.90;99.90;;;;;;5010081;28;20478;-78
2021/06/26 03:16:11;;;;;;;6.80;6.10;;;17.90;99.90;;;;;;4999323;28;20505;-77
2021/06/26 03:18:42;;;;;;;6.37;5.93;;;17.90;99.90;;;;;;5004836;28;20491;-78
2021/06/26 03:21:09;;;;;;;7.10;6.60;;;18.00;99.90;;;;;;5007493;28;20848;-77
2021/06/26 03:23:37;;;;;;;6.80;6.30;;;18.00;99.90;;;;;;4997120;28;20479;-78
2021/06/26 03:26:05;;;;;;;6.30;5.80;;;18.00;99.90;;;;;;5009307;28;20534;-77
2021/06/26 03:28:31;;;;;;;7.17;6.50;;;18.00;99.90;;;;;;5001923;28;20457;-77
2021/06/26 03:30:58;;;;;;;7.03;6.43;;;18.10;99.90;;;;;;5013065;28;20625;-78
2021/06/26 03:33:24;;;;;;;7.07;6.47;;;18.10;99.90;;;;;;4998129;28;20463;-78
2021/06/26 03:35:51;;;;;;;6.23;5.73;;;18.10;99.90;;;;;;5009776;28;20548;-78
2021/06/26 03:38:18;;;;;;;9.17;6.47;;;18.10;99.90;;;;;;5000214;28;20450;-77
2021/06/26 03:40:46;;;;;;;5.93;5.53;;;18.20;99.90;;;;;;5011743;28;20486;-77
2021/06/26 03:43:12;;;;;;;6.53;6.00;;;18.20;99.90;;;;;;4999497;28;20486;-77
2021/06/26 03:45:39;;;;;;;6.87;6.37;;;18.30;99.90;;;;;;5009582;28;20504;-76
2021/06/26 03:48:06;;;;;;;6.97;6.47;;;18.30;99.90;;;;;;4998437;28;20533;-77
2021/06/26 03:50:34;;;;;;;5.90;5.50;;;18.30;99.90;;;;;;5005017;28;20487;-77
2021/06/26 03:53:01;;;;;;;6.07;5.57;;;18.40;99.90;;;;;;5005496;28;20460;-77
2021/06/26 03:55:27;;;;;;;7.33;6.73;;;18.40;99.90;;;;;;5011969;28;20569;-77
2021/06/26 03:57:55;;;;;;;7.40;6.80;;;18.40;99.90;;;;;;5011665;28;20478;-77
2021/06/26 04:00:22;;;;;;;7.00;6.50;;;18.40;99.90;;;;;;5006195;28;20943;-77
2021/06/26 04:02:49;;;;;;;6.57;6.10;;;18.50;99.90;;;;;;5003925;28;20529;-77
2021/06/26 04:05:15;;;;;;;7.30;6.70;;;18.50;99.90;;;;;;4998753;28;20490;-77
2021/06/26 04:07:42;;;;;;;7.63;7.03;;;18.50;99.90;;;;;;5009056;28;20477;-78
2021/06/26 04:10:10;;;;;;;6.70;6.20;;;18.60;99.90;;;;;;4997852;28;20508;-77
2021/06/26 04:12:36;;;;;;;7.43;6.80;;;18.70;99.90;;;;;;5007736;28;20520;-77
2021/06/26 04:15:05;;;;;;;6.43;6.00;;;18.70;99.90;;;;;;5000537;28;20581;-77
2021/06/26 04:17:32;;;;;;;7.13;6.63;;;18.70;99.90;;;;;;5008821;28;20529;-77
2021/06/26 04:19:58;;;;;;;7.50;6.80;;;18.80;99.90;;;;;;4996957;28;20478;-77
2021/06/26 04:22:25;;;;;;;7.30;6.70;;;18.90;99.90;;;;;;5005430;28;20471;-78
2021/06/26 04:24:51;;;;;;;6.83;6.23;;;19.00;99.90;;;;;;5003704;28;20561;-78
2021/06/26 04:27:18;;;;;;;7.17;6.67;;;19.00;99.90;;;;;;4998267;28;20667;-78
2021/06/26 04:29:45;;;;;;;8.20;7.10;;;19.00;99.90;;;;;;5010033;28;20446;-78
2021/06/26 04:32:14;;;;;;;6.83;6.33;;;19.00;99.90;;;;;;5007061;28;20482;-78
2021/06/26 04:34:41;;;;;;;6.50;5.93;;;19.00;99.90;;;;;;5002200;28;20480;-77
2021/06/26 04:37:08;;;;;;;8.00;7.13;;;19.10;99.90;;;;;;4999044;28;21330;-79
2021/06/26 04:39:34;;;;;;;7.87;7.07;;;19.20;99.90;;;;;;5008306;28;20462;-77
2021/06/26 04:42:01;;;;;;;6.03;5.63;;;19.30;99.90;;;;;;5008379;28;20475;-77
2021/06/26 04:44:27;;;;;;;7.27;6.57;;;19.40;99.90;;;;;;5000509;28;20541;-77
2021/06/26 04:46:54;;;;;;;8.10;7.40;;;19.50;99.90;;;;;;5001048;28;20455;-77
2021/06/26 04:49:22;;;;;;;6.40;5.90;;;19.70;99.90;;;;;;5007333;28;20473;-77
2021/06/26 04:51:48;;;;;;;7.83;7.03;;;19.70;99.90;;;;;;4995496;28;20852;-77
2021/06/26 04:54:15;;;;;;;7.07;6.47;;;19.80;99.90;;;;;;5011552;28;20493;-76
2021/06/26 04:56:41;;;;;;;7.03;6.43;;;20.00;99.90;;;;;;5002560;28;20815;-77
2021/06/26 04:59:08;;;;;;;6.90;6.40;;;20.10;99.90;;;;;;5010879;28;20537;-77
2021/06/26 05:01:38;;;;;;;6.90;6.30;;;20.20;99.90;;;;;;4995550;28;20498;-77
2021/06/26 05:04:04;;;;;;;6.83;6.20;;;20.30;99.90;;;;;;5007541;28;20475;-77
2021/06/26 05:06:32;;;;;;;7.83;7.23;;;20.40;99.90;;;;;;5000564;28;20537;-78
2021/06/26 05:08:59;;;;;;;7.13;6.57;;;20.50;99.90;;;;;;5000017;28;20506;-78
2021/06/26 05:11:25;;;;;;;8.00;6.10;;;20.60;99.90;;;;;;5003711;28;20458;-77
2021/06/26 05:13:52;;;;;;;7.07;6.47;;;20.60;99.90;;;;;;4995671;28;20475;-78
2021/06/26 05:16:18;;;;;;;7.07;6.10;;;20.70;99.90;;;;;;5005313;28;20483;-78
2021/06/26 05:18:45;;;;;;;8.33;7.53;;;20.80;99.90;;;;;;4992074;28;20887;-78
2021/06/26 05:21:12;;;;;;;7.83;6.70;;;20.90;99.90;;;;;;4978601;28;20857;-78
2021/06/26 05:23:39;;;;;;;7.23;6.53;;;21.00;99.90;;;;;;4992683;28;20552;-77
2021/06/26 05:26:09;;;;;;;7.00;6.50;;;21.20;99.90;;;;;;4981753;28;20451;-78
2021/06/26 05:28:35;;;;;;;6.83;6.33;;;21.30;99.90;;;;;;4993418;28;20443;-77
2021/06/26 05:31:02;;;;;;;7.47;6.63;;;21.50;99.90;;;;;;4995994;28;20450;-78
2021/06/26 05:33:29;;;;;;;7.10;6.53;;;21.80;99.90;;;;;;4995879;28;20455;-78
2021/06/26 05:35:56;;;;;;;7.47;6.80;;;22.20;99.90;;;;;;4995081;28;20517;-78
2021/06/26 05:38:22;;;;;;;6.30;5.80;;;22.50;99.90;;;;;;4988093;28;20488;-78
2021/06/26 05:40:50;;;;;;;10.23;9.33;;;22.90;99.90;;;;;;4986180;28;20446;-78
2021/06/26 05:43:17;;;;;;;6.33;5.80;;;23.10;99.90;;;;;;4986170;28;20535;-78
2021/06/26 05:45:43;;;;;;;7.37;6.77;;;23.40;99.90;;;;;;4988545;28;20454;-79
2021/06/26 05:48:10;;;;;;;6.30;5.83;;;23.50;99.90;;;;;;4991291;28;20443;-80
2021/06/26 05:50:37;;;;;;;6.90;6.30;;;23.60;99.90;;;;;;4986788;28;20474;-80
2021/06/26 05:53:04;;;;;;;5.83;5.43;;;23.80;99.90;;;;;;4984005;28;20495;-80
2021/06/26 05:55:30;;;;;;;6.17;5.77;;;23.90;99.90;;;;;;4991206;28;20494;-80
2021/06/26 05:57:58;;;;;;;6.57;6.07;;;23.90;99.90;;;;;;4985220;28;20478;-80
2021/06/26 06:00:27;;;;;;;7.70;5.50;;;23.90;99.90;;;;;;4988334;28;20451;-80
2021/06/26 06:02:53;;;;;;;4.87;4.40;;;23.90;99.90;;;;;;4987152;28;20466;-81
2021/06/26 06:05:20;;;;;;;10.07;6.20;;;24.00;99.90;;;;;;4980843;28;20966;-81
2021/06/26 06:07:47;;;;;;;5.40;5.00;;;24.10;99.90;;;;;;4991944;28;20455;-81
2021/06/26 06:10:15;;;;;;;6.00;5.60;;;24.20;99.90;;;;;;4981830;28;20760;-81
2021/06/26 06:12:42;;;;;;;5.00;4.60;;;24.20;99.90;;;;;;4990401;28;21052;-81
2021/06/26 06:15:12;;;;;;;5.23;4.83;;;24.30;99.90;;;;;;4982049;28;20471;-81
2021/06/26 06:17:39;;;;;;;5.60;5.10;;;24.30;99.90;;;;;;5007104;28;20557;-81
2021/06/26 06:20:07;;;;;;;5.30;4.80;;;24.30;99.90;;;;;;5000281;28;20478;-80
2021/06/26 06:22:35;;;;;;;5.47;5.07;;;24.40;99.90;;;;;;5006516;28;20489;-81
2021/06/26 06:25:03;;;;;;;5.50;5.00;;;24.40;99.90;;;;;;5007478;28;20516;-81
2021/06/26 06:27:29;;;;;;;7.10;5.77;;;24.50;99.90;;;;;;4999295;28;20529;-82
2021/06/26 06:29:56;;;;;;;6.07;5.60;;;24.70;99.90;;;;;;5009534;28;20446;-82
2021/06/26 06:32:23;;;;;;;9.13;8.40;;;24.70;99.90;;;;;;5010398;28;20450;-81
2021/06/26 06:34:50;;;;;;;8.40;7.73;;;24.90;99.90;;;;;;5003573;28;20513;-82
2021/06/26 06:37:17;;;;;;;5.63;5.23;;;25.10;99.90;;;;;;4995777;28;20543;-82
2021/06/26 06:39:44;;;;;;;6.13;5.73;;;25.10;99.90;;;;;;5010761;28;20569;-81
2021/06/26 06:42:11;;;;;;;5.77;4.73;;;25.20;99.90;;;;;;5008074;28;20482;-81
2021/06/26 06:44:37;;;;;;;5.87;5.40;;;25.30;99.90;;;;;;5004752;28;20490;-81
2021/06/26 06:47:04;;;;;;;5.83;5.43;;;25.20;99.90;;;;;;5004846;28;20447;-81
2021/06/26 06:49:32;;;;;;;6.63;5.77;;;25.30;99.90;;;;;;4997929;28;20447;-82
2021/06/26 06:51:59;;;;;;;6.80;6.30;;;25.40;99.90;;;;;;5010293;28;20973;-81
2021/06/26 06:54:25;;;;;;;6.13;5.73;;;25.40;99.90;;;;;;5012712;28;20511;-82
2021/06/26 06:56:52;;;;;;;5.73;5.20;;;25.30;99.90;;;;;;5003109;28;21065;-83
2021/06/26 06:59:19;;;;;;;6.13;5.63;;;25.40;99.90;;;;;;5013369;28;20509;-82
2021/06/26 07:01:45;;;;;;;4.80;4.40;;;25.50;99.90;;;;;;4999897;28;20556;-83
2021/06/26 07:04:12;;;;;;;4.17;3.87;;;25.80;99.90;;;;;;4994860;28;20535;-83
2021/06/26 07:06:39;;;;;;;5.13;4.73;;;26.00;99.90;;;;;;5003337;28;20481;-83
2021/06/26 07:09:06;;;;;;;5.43;5.03;;;26.00;99.90;;;;;;5000874;28;20884;-84
2021/06/26 07:11:33;;;;;;;5.10;4.57;;;25.80;99.90;;;;;;5005219;28;20450;-83
2021/06/26 07:13:59;;;;;;;8.67;7.93;;;25.70;99.90;;;;;;5010269;28;20447;-83
2021/06/26 07:16:26;;;;;;;7.67;7.13;;;25.90;99.90;;;;;;5001511;28;20917;-83
2021/06/26 07:18:52;;;;;;;5.73;5.23;;;26.40;99.90;;;;;;5002804;28;20541;-82
2021/06/26 07:21:19;;;;;;;5.47;4.93;;;26.80;99.90;;;;;;5008734;28;20814;-84
2021/06/26 07:23:47;;;;;;;4.40;4.00;;;27.00;99.90;;;;;;4996935;28;20450;-82
2021/06/26 07:26:13;;;;;;;4.93;4.40;;;27.50;99.90;;;;;;5009835;28;20450;-83
2021/06/26 07:28:40;;;;;;;4.37;4.00;;;27.70;99.90;;;;;;5005570;28;20857;-84
2021/06/26 07:31:06;;;;;;;4.60;4.30;;;28.00;99.90;;;;;;5002159;28;20874;-83
2021/06/26 07:33:33;;;;;;;3.77;3.57;;;28.30;99.90;;;;;;5003733;28;20851;-84
2021/06/26 07:36:00;;;;;;;4.97;4.60;;;28.30;99.90;;;;;;5000989;28;20518;-83
2021/06/26 07:38:26;;;;;;;4.10;3.77;;;28.40;99.90;;;;;;5004231;28;20546;-81
2021/06/26 07:40:54;;;;;;;3.63;3.33;;;28.20;99.90;;;;;;5001758;28;20447;-82
2021/06/26 07:43:21;;;;;;;3.37;3.17;;;28.20;99.90;;;;;;4995511;28;20455;-82
2021/06/26 07:45:47;;;;;;;3.10;2.90;;;28.20;99.90;;;;;;5008550;28;20455;-81
2021/06/26 07:48:14;;;;;;;5.20;3.40;;;28.40;99.90;;;;;;4999704;28;21007;-81
2021/06/26 07:50:40;;;;;;;3.93;3.67;;;28.60;99.90;;;;;;5003859;28;20475;-81
2021/06/26 07:53:07;;;;;;;3.80;3.60;;;28.70;99.90;;;;;;5006310;28;20482;-81
2021/06/26 07:55:34;;;;;;;4.10;3.70;;;28.60;99.90;;;;;;5011902;28;20513;-83
2021/06/26 07:58:02;;;;;;;3.97;3.57;;;28.60;99.90;;;;;;5002709;28;20504;-81
2021/06/26 08:00:28;;;;;;;4.00;3.70;;;28.70;99.90;;;;;;5005513;28;20470;-81
2021/06/26 08:02:55;;;;;;;5.80;3.50;;;28.70;99.90;;;;;;5004792;28;20482;-82
2021/06/26 08:05:21;;;;;;;3.87;3.57;;;28.70;99.90;;;;;;4997762;28;21070;-81
2021/06/26 08:07:48;;;;;;;4.97;4.60;;;28.60;99.90;;;;;;5008849;28;20494;-81
2021/06/26 08:10:14;;;;;;;3.70;3.50;;;28.30;99.90;;;;;;4999160;28;20474;-82
2021/06/26 08:12:41;;;;;;;3.93;3.63;;;27.80;99.90;;;;;;5007691;28;20541;-81
2021/06/26 08:15:10;;;;;;;3.13;2.93;;;27.80;99.90;;;;;;4999767;28;20477;-82
2021/06/26 08:17:37;;;;;;;3.73;3.00;;;28.00;99.90;;;;;;5008784;28;20557;-82
2021/06/26 08:20:04;;;;;;;4.97;3.10;;;28.20;99.90;;;;;;4997346;28;20447;-82
2021/06/26 08:22:31;;;;;;;3.30;3.10;;;28.20;99.90;;;;;;5010780;28;20537;-82
2021/06/26 08:24:57;;;;;;;4.70;4.30;;;28.40;99.30;;;;;;5000843;28;20468;-82
2021/06/26 08:27:24;;;;;;;4.57;4.27;;;28.60;98.50;;;;;;5007046;28;20489;-81
2021/06/26 08:29:50;;;;;;;3.60;3.37;;;28.80;98.10;;;;;;5003825;28;20447;-81
2021/06/26 08:32:18;;;;;;;3.17;2.97;;;28.80;97.60;;;;;;5003967;28;20451;-82
2021/06/26 08:34:45;;;;;;;3.60;3.30;;;29.00;97.60;;;;;;5001970;28;20489;-83
2021/06/26 08:37:11;;;;;;;3.43;3.20;;;29.10;96.80;;;;;;5008283;28;20568;-83
2021/06/26 08:39:38;;;;;;;4.70;4.37;;;29.00;95.70;;;;;;4995814;28;20497;-82
2021/06/26 08:42:06;;;;;;;3.70;3.40;;;29.00;96.40;;;;;;5000105;28;20506;-83
2021/06/26 08:44:32;;;;;;;3.33;3.13;;;28.80;95.60;;;;;;5004034;28;20479;-83
2021/06/26 08:47:00;;;;;;;3.07;2.87;;;28.50;96.10;;;;;;5004266;28;20478;-82
2021/06/26 08:49:28;;;;;;;3.27;3.07;;;28.30;95.70;;;;;;5000484;28;20481;-82
2021/06/26 08:51:55;;;;;;;3.03;2.77;;;28.00;96.30;;;;;;5001921;28;20504;-83
2021/06/26 08:54:22;;;;;;;3.40;3.20;;;27.70;96.50;;;;;;5003914;28;21045;-83
2021/06/26 08:56:52;;;;;;;3.43;3.23;;;27.60;95.60;;;;;;4999918;28;20576;-80
2021/06/26 08:59:21;;;;;;;3.60;3.30;;;27.60;96.10;;;;;;5011505;28;20454;-81
2021/06/26 09:01:48;;;;;;;4.10;3.70;;;27.70;96.70;;;;;;4997218;28;21016;-81
2021/06/26 09:04:16;;;;;;;4.50;4.10;;;27.90;97.00;;;;;;5002454;28;20443;-81
2021/06/26 09:06:49;;;;;;;5.40;4.20;;;27.90;95.70;;;;;;5001562;28;20972;-82
2021/06/26 09:09:16;;;;;;;3.70;3.50;;;27.80;95.80;;;;;;5001581;28;20489;-82
2021/06/26 09:11:43;;;;;;;4.10;3.80;;;27.70;95.30;;;;;;5000262;28;20461;-83
2021/06/26 09:14:20;;;;;;;3.93;3.60;;;27.50;95.60;;;;;;5002143;28;20499;-83
2021/06/26 09:16:51;;;;;;;3.20;3.00;;;27.50;95.90;;;;;;5000956;28;20575;-83
2021/06/26 09:19:17;;;;;;;4.60;4.20;;;27.50;95.60;;;;;;5002456;28;20454;-83
2021/06/26 09:21:54;;;;;;;4.13;3.87;;;27.70;94.40;;;;;;5000288;28;20482;-83
2021/06/26 09:24:22;;;;;;;9.10;8.30;;;27.90;94.30;;;;;;5002269;28;20513;-83
2021/06/26 09:26:56;;;;;;;6.63;4.13;;;28.00;93.90;;;;;;5004935;28;20449;-83
2021/06/26 09:29:23;;;;;;;3.70;3.50;;;28.10;93.80;;;;;;5008849;28;20528;-83
2021/06/26 09:31:51;;;;;;;4.23;3.93;;;28.30;93.80;;;;;;5008561;28;20500;-83
2021/06/26 09:34:18;;;;;;;3.33;3.13;;;28.40;93.40;;;;;;4998550;28;20461;-83
2021/06/26 09:36:45;;;;;;;3.83;3.60;;;28.50;93.40;;;;;;5008396;28;20513;-83
2021/06/26 09:39:12;;;;;;;3.97;3.67;;;28.60;92.90;;;;;;4998115;28;20807;-81
2021/06/26 09:41:41;;;;;;;3.93;3.73;;;28.40;92.60;;;;;;4999244;28;20862;-81
2021/06/26 09:44:09;;;;;;;3.60;3.40;;;28.20;91.00;;;;;;5006736;28;20889;-81
2021/06/26 09:46:45;;;;;;;3.90;3.63;;;27.80;92.00;;;;;;5000708;28;20462;-82
2021/06/26 09:49:12;;;;;;;3.77;3.47;;;27.50;92.10;;;;;;5000720;28;20454;-85
2021/06/26 09:51:39;;;;;;;5.70;3.63;;;27.10;92.50;;;;;;4995038;28;20482;-84
2021/06/26 09:54:08;;;;;;;3.70;3.40;;;26.90;93.00;;;;;;5010614;28;20512;-77
2021/06/26 09:56:41;;;;;;;3.70;3.47;;;26.80;91.70;;;;;;5002548;28;20540;-79
2021/06/26 09:59:08;;;;;;;3.10;2.90;;;26.60;89.90;;;;;;5010322;28;20450;-79
2021/06/26 10:01:36;;;;;;;3.90;3.70;;;26.50;91.20;;;;;;4995036;28;20514;-78
2021/06/26 10:04:05;;;;;;;3.20;3.00;;;26.60;91.20;;;;;;5010801;28;20529;-77
2021/06/26 10:06:33;;;;;;;3.90;3.50;;;26.70;91.10;;;;;;5003138;28;20462;-85
2021/06/26 10:09:00;;;;;;;3.50;3.30;;;26.90;91.30;;;;;;5006622;28;20482;-85
2021/06/26 10:11:30;;;;;;;3.40;3.20;;;27.00;91.30;;;;;;5003471;28;20481;-84
2021/06/26 10:14:00;;;;;;;2.83;2.53;;;27.30;90.20;;;;;;5014817;28;20450;-91
2021/06/26 10:16:28;;;;;;;3.70;3.40;;;27.60;89.50;;;;;;5007311;28;20483;-89
2021/06/26 10:18:55;;;;;;;4.30;3.13;;;27.70;88.00;;;;;;4995189;28;20451;-90
2021/06/26 10:21:22;;;;;;;3.00;2.90;;;27.90;90.10;;;;;;4995731;28;21232;-86
2021/06/26 10:23:49;;;;;;;3.40;3.10;;;28.20;88.00;;;;;;4995040;28;21167;-88
2021/06/26 10:26:16;;;;;;;4.00;3.70;;;28.40;88.60;;;;;;4995634;28;20483;-87
2021/06/26 10:28:50;;;;;;;4.60;4.40;;;28.60;87.80;;;;;;4995518;28;20454;-88
2021/06/26 10:31:29;;;;;;;3.67;3.37;;;28.20;86.50;;;;;;4995659;28;20447;-89
2021/06/26 10:34:07;;;;;;;4.23;3.93;;;27.90;87.40;;;;;;4995103;28;20447;-86
2021/06/26 10:36:35;;;;;;;3.83;3.63;;;27.70;87.50;;;;;;4995093;28;20510;-90
2021/06/26 10:39:02;;;;;;;4.10;3.17;;;27.50;87.70;;;;;;4995248;28;20443;-85
2021/06/26 10:41:29;;;;;;;5.10;4.60;;;27.30;89.20;;;;;;4986046;28;20490;-89
2021/06/26 10:43:57;;;;;;;9.97;4.10;;;27.20;89.70;;;;;;4995119;28;20486;-81
2021/06/26 10:46:25;;;;;;;4.63;4.23;;;27.00;90.70;;;;;;4995008;28;20866;-83
2021/06/26 10:48:58;;;;;;;4.33;4.13;;;26.80;90.50;;;;;;4993751;28;20478;-85
2021/06/26 10:51:32;;;;;;;4.53;4.13;;;26.70;90.80;;;;;;4990390;28;20454;-84
2021/06/26 10:54:10;;;;;;;4.50;4.20;;;26.50;92.20;;;;;;4989998;28;20538;-81
2021/06/26 10:56:36;;;;;;;4.37;4.00;;;26.40;92.40;;;;;;4994514;28;20471;-87
2021/06/26 10:59:09;;;;;;;4.43;4.10;;;26.30;92.00;;;;;;4990706;28;20506;-86
2021/06/26 11:01:38;;;;;;;4.20;3.93;;;26.20;92.70;;;;;;4985782;28;20456;-87
2021/06/26 11:04:08;;;;;;;3.77;3.57;;;26.10;91.10;;;;;;4984739;28;20488;-86
2021/06/26 11:06:35;;;;;;;4.20;3.90;;;26.10;91.40;;;;;;4986765;28;20459;-86
2021/06/26 11:09:04;;;;;;;7.10;3.80;;;26.00;91.90;;;;;;4990060;28;20489;-86
2021/06/26 11:11:33;;;;;;;5.80;4.30;;;26.00;91.50;;;;;;4982691;28;20526;-83
2021/06/26 11:14:10;;;;;;;4.67;4.33;;;26.00;90.90;;;;;;4979313;28;20448;-82
2021/06/26 11:16:43;;;;;;;4.77;4.37;;;26.00;91.10;;;;;;4994003;28;20518;-84
2021/06/26 11:19:10;;;;;;;4.23;3.90;;;26.00;91.60;;;;;;4993427;28;20783;-82
2021/06/26 11:21:41;;;;;;;4.67;3.90;;;25.90;91.50;;;;;;4993035;28;20525;-86
2021/06/26 11:24:08;;;;;;;3.80;3.60;;;26.00;91.40;;;;;;4991007;28;20455;-85
2021/06/26 11:26:49;;;;;;;4.43;4.13;;;26.00;91.80;;;;;;4993671;28;20490;-87
2021/06/26 11:29:34;;;;;;;4.50;4.17;;;26.10;92.80;;;;;;4991515;28;20458;-86
2021/06/26 11:32:05;;;;;;;3.60;3.40;;;26.20;91.30;;;;;;4982675;28;20455;-87
2021/06/26 11:34:33;;;;;;;4.50;4.30;;;26.30;90.40;;;;;;4987217;28;20505;-86
2021/06/26 11:37:09;;;;;;;10.83;4.00;;;26.30;90.00;;;;;;4985551;28;20463;-87
2021/06/26 11:39:36;;;;;;;3.60;3.40;;;26.40;91.60;;;;;;4985258;28;20483;-87
2021/06/26 11:42:14;;;;;;;3.90;3.70;;;26.60;90.50;;;;;;4988180;28;20930;-87
2021/06/26 11:44:40;;;;;;;3.47;3.27;;;26.70;90.10;;;;;;4984355;28;21085;-87
2021/06/26 11:47:09;;;;;;;3.70;3.50;;;26.80;83.90;;;;;;4985942;28;20518;-87
2021/06/26 11:49:38;;;;;;;3.67;3.47;;;26.80;81.30;;;;;;4984979;28;20444;-87
2021/06/26 11:52:07;;;;;;;3.50;3.30;;;26.70;78.80;;;;;;4979031;28;20447;-87
2021/06/26 11:54:34;;;;;;;3.10;2.90;;;26.40;78.90;;;;;;4983197;28;20447;-87
2021/06/26 11:57:00;;;;;;;3.93;3.10;;;26.30;80.50;;;;;;4993263;28;20475;-87
2021/06/26 11:59:30;;;;;;;3.30;3.00;;;26.20;78.80;;;;;;4993547;28;20458;-87
2021/06/26 12:01:57;;;;;;;3.30;3.10;;;26.20;80.20;;;;;;4993546;28;20501;-87
2021/06/26 12:04:31;;;;;;;2.80;2.37;;;26.10;81.90;;;;;;4993789;28;20491;-88
2021/06/26 12:06:57;;;;;;;3.77;3.50;;;26.20;83.50;;;;;;4993498;28;20526;-87
2021/06/26 12:09:26;;;;;;;3.27;3.07;;;26.40;80.50;;;;;;4993451;28;20521;-87
2021/06/26 12:11:56;;;;;;;3.23;2.90;;;26.60;79.30;;;;;;4989144;28;20576;-87
2021/06/26 12:14:27;;;;;;;3.40;3.20;;;26.70;78.20;;;;;;4986389;28;20447;-88
2021/06/26 12:17:01;;;;;;;2.90;2.70;;;26.90;76.20;;;;;;4992464;28;20548;-86
2021/06/26 12:19:31;;;;;;;2.13;1.93;;;26.90;79.80;;;;;;5000842;28;20509;-87
2021/06/26 12:21:59;;;;;;;9.23;8.40;;;26.90;78.20;;;;;;5001725;28;20505;-87
2021/06/26 12:24:27;;;;;;;4.13;3.83;;;27.00;77.80;;;;;;5003131;28;20446;-88
2021/06/26 12:27:07;;;;;;;2.87;2.67;;;27.10;77.10;;;;;;5002066;28;20484;-86
2021/06/26 12:29:35;;;;;;;4.17;2.90;;;27.20;78.40;;;;;;5008863;28;20446;-84
2021/06/26 12:32:02;;;;;;;2.60;2.50;;;27.50;75.20;;;;;;5004443;28;20475;-84
2021/06/26 12:34:30;;;;;;;2.90;2.70;;;27.50;71.80;;;;;;5002612;28;20930;-84
2021/06/26 12:36:59;;;;;;;2.30;2.20;;;27.40;71.30;;;;;;5003566;28;20986;-84
2021/06/26 12:39:32;;;;;;;2.53;2.43;;;27.40;70.20;;;;;;5001932;28;20818;-84
2021/06/26 12:42:00;;;;;;;2.43;2.23;;;27.40;68.70;;;;;;5001640;28;20974;-82
2021/06/26 12:44:27;;;;;;;3.93;2.20;;;27.30;70.20;;;;;;5002340;28;20890;-83
2021/06/26 12:46:54;;;;;;;2.37;2.27;;;27.30;68.30;;;;;;5003823;28;20486;-83
2021/06/26 12:49:22;;;;;;;2.37;2.17;;;26.90;66.90;;;;;;4997421;28;20485;-83